CheckWX is a tool to help pilots better visualize weather data.  It is not intended as a substitute for an official pre-flight weather briefing.

09:03:32 UTC

SAAR TAF
Islas Malvinas Airport
Rosario, Argentina
TAF SAAR 240500Z 2406/2506 02005KT CAVOK TX31/2418Z TN14/2410Z BECMG 2407/2408 6000 NSC BECMG 2410/2412 36010KT CAVOK BECMG 2501/2503 22005KT 9999 BKN030

Feb-24@
06:00 UTC

Feb-24 @ 06:00 UTC

Feb-24@
07:00 UTC

Feb-24 @ 07:00 UTC

TAF SAAR 240500Z 2406/2506 02005KT CAVOK TX31/2418Z TN14/2410Z

Expired

Wind
  • 020° at 5 KTS
Cloud Levels
  • No significant clouds

Feb-24@
07:00 UTC

Feb-24 @ 07:00 UTC

Feb-24@
10:00 UTC

Feb-24 @ 10:00 UTC

BECMG 2407/2408 6000 NSC

Becoming

Becoming Conditions expected by Mon, Feb 24, 2020 @ 08:00 UTC

Wind
  • 020° at 5 KTS
Cloud Levels
  • No significant clouds

Feb-24@
10:00 UTC

Feb-24 @ 10:00 UTC

Feb-25@
01:00 UTC

Feb-25 @ 01:00 UTC

BECMG 2410/2412 36010KT CAVOK

Becoming

Becoming Conditions expected by Mon, Feb 24, 2020 @ 12:00 UTC

Wind
  • 360° at 10 KTS
Conditions
No significant weather
Cloud Levels
  • No significant clouds

Feb-25@
01:00 UTC

Feb-25 @ 01:00 UTC

Feb-25@
06:00 UTC

Feb-25 @ 06:00 UTC

BECMG 2501/2503 22005KT 9999 BKN030

Becoming

Becoming Conditions expected by Tue, Feb 25, 2020 @ 03:00 UTC

Wind
  • 220° at 5 KTS
Conditions
No significant weather
Cloud Levels
  • Broken at 3,000' AGL